Idiazabal, Argentina
Current Conditions -  °F | °C
As of 12:00 AM on Saturday 25 Oct 2014 (Local Time) from SAOC Reporting Station
Few Clouds Few Clouds  
Wind Chill: 72°   Ceiling: Unl
Heat Index: 72°   Visibility: 6mi
Dew Point: 55°   Wind: 17mph
Humidity: 57%   Direction: 360°N
Pressure: 29.91"   Gusts: NA
Location:  32.8°S, 63.03°W
Report Text: SAOC 250300Z 36015KT 9999 FEW030 FEW040CB22/13 Q1013
Loading
Personal Weather Stations






























Interactive Weather Map
Tropical Storm Tracking
New forecast layout! Learn more

10-Day Weather Forecast

Advertisements
Track Severe Weather on mobile